Upper Arlington, Ohio
Current Conditions -  °F | °C
As of 6:53 PM on Friday 28 Nov 2014 (Local Time) from KOSU Reporting Station
Clear Clear  
Wind Chill: 22°   Ceiling: Unl
Heat Index: 31°   Visibility: 10mi
Dew Point: 19°   Wind: 12mph
Humidity: 61%   Direction: 160°SSE
Pressure: 30.18"   Gusts: NA
Location:  40.03°N, 83.05°W
Report Text: KOSU 282353Z 16010KT 10SM CLR M01/M07 A3018 RMK AO2 SLP230 T10061072 10000 21022 57018
Loading
Personal Weather Stations






























Interactive Weather Map New forecast layout! Learn more

10-Day Weather Forecast

Advertisements
Track Severe Weather on mobile